createdAt,value
2023-04-18T01:55:48.144Z,1.00
2023-04-18T01:57:01.226Z,0.00
2023-04-18T01:59:28.635Z,0.00
2023-04-18T02:03:15.374Z,0.00
2023-04-18T02:04:31.511Z,0.00
2023-04-18T02:05:36.450Z,0.00
2023-04-18T02:06:47.819Z,0.00
2023-04-18T02:07:55.918Z,0.00
2023-04-18T02:09:10.143Z,0.00
2023-04-18T02:10:13.581Z,0.00
2023-04-18T02:12:45.122Z,0.00
2023-04-18T02:13:49.826Z,0.00
2023-04-18T02:14:54.241Z,0.00
2023-04-18T02:16:09.606Z,0.00
2023-04-18T02:18:41.585Z,0.00
2023-04-18T02:19:47.502Z,0.00
2023-04-18T02:22:15.251Z,0.00
2023-04-18T02:24:40.544Z,0.00
2023-04-18T02:25:56.718Z,0.00
2023-04-18T02:27:08.949Z,0.00
2023-04-18T02:28:15.212Z,0.00
2023-04-18T02:30:42.835Z,0.00
2023-04-18T02:31:49.278Z,0.00
2023-04-18T02:34:26.013Z,0.25
2023-04-18T02:38:15.708Z,0.00
2023-04-18T02:39:22.172Z,0.00
2023-04-18T02:41:50.737Z,0.00
2023-04-18T02:44:23.403Z,0.00
2023-04-18T02:45:33.624Z,0.00
2023-04-18T02:48:01.102Z,0.00
2023-04-18T02:50:26.142Z,0.00
2023-04-18T02:51:31.261Z,0.00
2023-04-18T02:54:05.362Z,0.00
2023-04-18T02:55:12.453Z,0.00
2023-04-18T03:10:27.920Z,0.00
2023-04-18T03:14:24.639Z,0.00
2023-04-18T03:17:02.569Z,0.00
2023-04-18T03:27:43.887Z,0.00
2023-04-18T03:28:59.792Z,0.00
2023-04-18T03:38:13.284Z,0.00
2023-04-18T03:44:47.212Z,0.00
2023-04-18T03:45:52.303Z,0.25
2023-04-18T03:46:58.420Z,0.00
2023-04-18T03:48:03.100Z,0.00
2023-04-18T03:50:36.003Z,0.00
2023-04-18T03:51:40.699Z,0.00
2023-04-18T03:52:49.624Z,0.00
2023-04-18T03:55:15.757Z,0.00
2023-04-18T03:57:43.112Z,0.00
2023-04-18T04:00:15.892Z,0.00
2023-04-18T04:01:20.431Z,0.00
2023-04-18T04:02:24.961Z,0.00
2023-04-18T04:08:56.714Z,0.00
2023-04-18T04:11:26.097Z,0.00
2023-04-18T04:12:30.966Z,0.00
2023-04-18T04:13:40.463Z,0.00
2023-04-18T04:17:30.564Z,0.00
2023-04-18T04:30:48.552Z,0.25
2023-04-18T04:41:23.438Z,0.00
2023-04-18T04:42:32.853Z,0.00
2023-04-18T04:45:01.993Z,0.25
2023-04-18T04:46:12.474Z,0.00
2023-04-18T04:47:19.106Z,0.00
2023-04-18T04:48:23.211Z,0.00
2023-04-18T04:51:03.453Z,0.00
2023-04-18T04:53:30.605Z,0.00
2023-04-18T04:54:46.855Z,0.00
2023-04-18T05:12:05.066Z,0.00
2023-04-18T05:13:12.034Z,0.00
2023-04-18T05:18:28.550Z,0.00
2023-04-18T05:20:54.837Z,0.00
2023-04-18T05:26:14.011Z,0.00
2023-04-18T05:28:38.253Z,0.00
2023-04-18T05:29:41.968Z,0.00
2023-04-18T05:30:49.687Z,0.25
2023-04-18T05:32:03.567Z,0.50
2023-04-18T05:34:44.277Z,0.00
2023-04-18T05:35:53.459Z,0.00
2023-04-18T05:36:58.962Z,0.00
2023-04-18T05:51:35.638Z,0.00
2023-04-18T05:55:31.071Z,0.00
2023-04-18T05:58:06.768Z,0.00
2023-04-18T06:03:25.522Z,0.00
2023-04-18T06:05:52.662Z,0.00
2023-04-18T06:19:19.517Z,0.00
2023-04-18T06:20:23.406Z,0.00
2023-04-18T08:12:09.494Z,0.50
2023-04-18T09:15:46.243Z,1.00
2023-04-18T09:19:41.944Z,1.00
2023-04-18T09:22:20.829Z,0.50
2023-04-18T09:23:32.372Z,0.50
2023-04-18T09:24:41.821Z,1.00
2023-04-18T09:28:39.943Z,1.00
2023-04-18T09:29:51.608Z,1.00
2023-04-18T09:31:07.398Z,0.50
2023-04-18T09:33:34.334Z,1.00
2023-04-18T09:34:43.117Z,1.00
2023-04-18T10:13:54.049Z,1.00
2023-04-18T10:15:03.873Z,2.00
2023-04-18T10:39:45.230Z,1.00
2023-04-18T10:51:45.375Z,1.00
2023-04-18T10:53:00.108Z,1.50
2023-04-18T11:02:21.256Z,1.00
2023-04-18T11:17:10.199Z,1.00
2023-04-18T11:18:25.534Z,0.50
2023-04-18T11:23:37.097Z,1.00
2023-04-18T11:24:46.391Z,1.50
2023-04-18T11:26:04.171Z,1.00
2023-04-18T11:34:02.978Z,1.00
2023-04-18T12:08:06.400Z,1.00
2023-04-18T12:09:22.389Z,1.00
2023-04-18T12:11:48.926Z,1.00
2023-04-18T12:14:20.614Z,0.75
2023-04-18T12:19:33.948Z,0.50
2023-04-18T12:22:00.166Z,1.00
2023-04-18T12:24:27.663Z,0.50
2023-04-18T12:30:42.033Z,0.50
2023-04-18T12:31:53.370Z,0.50
2023-04-18T12:34:31.355Z,0.50
2023-04-18T12:35:40.385Z,0.00
2023-04-18T12:36:43.885Z,1.00
2023-04-18T12:37:50.315Z,1.00
2023-04-18T12:38:57.278Z,0.50
2023-04-18T12:40:06.311Z,0.00
2023-04-18T12:42:35.958Z,0.50
2023-04-18T12:43:39.743Z,1.00
2023-04-18T12:44:45.832Z,1.00
2023-04-18T12:46:02.949Z,0.50
2023-04-18T12:47:11.739Z,1.00
2023-04-18T12:49:37.095Z,0.75
2023-04-18T12:50:43.232Z,0.50
2023-04-18T12:51:46.101Z,0.25
2023-04-18T12:54:09.512Z,1.00
2023-04-18T12:56:38.599Z,0.25
2023-04-18T12:57:41.199Z,0.50
2023-04-18T13:00:20.743Z,0.75
2023-04-18T13:01:30.082Z,1.00
2023-04-18T13:02:36.319Z,0.50
2023-04-18T13:03:38.684Z,1.00
2023-04-18T13:04:43.586Z,0.50
2023-04-18T13:05:45.751Z,1.00
2023-04-18T13:06:48.897Z,0.50
2023-04-18T13:07:54.076Z,0.50
2023-04-18T13:08:55.561Z,0.50
2023-04-18T13:09:58.438Z,1.00
2023-04-18T13:11:01.569Z,1.50
2023-04-18T13:12:04.345Z,1.50
2023-04-18T13:14:27.511Z,1.00
2023-04-18T13:15:31.458Z,1.00
2023-04-18T13:16:37.248Z,1.00
2023-04-18T13:17:40.069Z,0.50
2023-04-18T13:18:43.087Z,1.00
2023-04-18T13:19:47.660Z,1.00
2023-04-18T13:20:50.981Z,1.00
2023-04-18T13:21:53.927Z,1.00
2023-04-18T13:22:56.846Z,0.50
2023-04-18T13:24:04.536Z,0.60
2023-04-18T13:25:07.616Z,1.00
2023-04-18T13:27:33.370Z,0.50
2023-04-18T13:28:41.025Z,0.50
2023-04-18T13:29:43.874Z,0.75
2023-04-18T13:30:54.163Z,1.00
2023-04-18T13:31:56.496Z,1.00
2023-04-18T13:33:09.547Z,1.50
2023-04-18T13:36:53.273Z,1.00
2023-04-18T13:37:56.658Z,1.00
2023-04-18T13:38:59.700Z,3.25
2023-04-18T13:40:02.414Z,8.00
2023-04-18T13:43:46.433Z,3.00
2023-04-18T13:44:49.425Z,3.00
2023-04-18T13:45:52.149Z,3.50
2023-04-18T13:46:54.816Z,4.00
2023-04-18T13:47:59.519Z,4.00
2023-04-18T13:49:03.942Z,4.75
2023-04-18T13:50:07.341Z,4.50
2023-04-18T13:52:43.257Z,4.00
2023-04-18T13:53:56.592Z,2.50
2023-04-18T13:54:58.869Z,1.50
2023-04-18T13:56:01.720Z,1.50
2023-04-18T13:57:05.525Z,1.00
2023-04-18T13:59:31.023Z,1.00
2023-04-18T14:00:33.760Z,0.50
2023-04-18T14:01:36.810Z,0.50
2023-04-18T14:02:41.066Z,0.75
2023-04-18T14:03:44.481Z,1.00
2023-04-18T14:04:49.236Z,1.00
2023-04-18T14:05:53.149Z,1.00
2023-04-18T14:09:38.457Z,1.00
2023-04-18T14:10:41.348Z,1.00
2023-04-18T14:11:43.981Z,1.00
2023-04-18T14:12:46.810Z,1.00
2023-04-18T14:13:49.727Z,1.00
2023-04-18T14:14:52.444Z,1.00
2023-04-18T14:17:32.059Z,1.00
2023-04-18T14:18:34.824Z,1.00
2023-04-18T14:19:37.822Z,1.00
2023-04-18T14:20:40.567Z,0.50
2023-04-18T14:21:44.950Z,0.00
2023-04-18T14:22:47.622Z,1.00
2023-04-18T14:23:53.535Z,1.00
2023-04-18T14:24:57.781Z,1.00
2023-04-18T14:26:00.820Z,1.50
2023-04-18T14:27:06.169Z,1.50
2023-04-18T14:28:09.224Z,0.00
2023-04-18T14:29:12.239Z,1.00
2023-04-18T14:30:22.507Z,1.00
2023-04-18T14:31:25.577Z,1.25
2023-04-18T14:32:28.431Z,1.00
2023-04-18T14:34:51.803Z,1.00
2023-04-18T14:35:55.067Z,1.00
2023-04-18T14:36:57.698Z,1.00
2023-04-18T14:38:00.665Z,1.00
2023-04-18T14:40:23.716Z,1.00
2023-04-18T14:41:26.491Z,1.00
2023-04-18T14:42:29.198Z,1.00
2023-04-18T14:43:31.924Z,1.00
2023-04-18T14:44:34.632Z,1.00
2023-04-18T14:45:37.533Z,1.00
2023-04-18T14:46:40.371Z,1.00
2023-04-18T14:47:43.159Z,1.00
2023-04-18T14:48:45.921Z,1.00
2023-04-18T14:49:50.242Z,1.00
2023-04-18T14:50:52.923Z,1.00
2023-04-18T14:51:55.919Z,1.00
2023-04-18T14:53:03.295Z,1.50
2023-04-18T14:54:06.109Z,1.50
2023-04-18T14:55:08.751Z,1.00
2023-04-18T14:56:11.516Z,1.50
2023-04-18T14:57:14.235Z,1.50
2023-04-18T14:58:21.818Z,1.20
2023-04-18T14:59:24.674Z,1.50
2023-04-18T15:00:27.378Z,1.25
2023-04-18T15:01:35.389Z,1.50
2023-04-18T15:02:37.963Z,2.50
2023-04-18T15:03:41.061Z,4.50
2023-04-18T15:04:44.013Z,4.00
2023-04-18T15:07:07.243Z,5.00
2023-04-18T15:08:10.015Z,5.50
2023-04-18T15:09:12.707Z,5.00
2023-04-18T15:10:16.698Z,4.50
2023-04-18T15:11:19.373Z,5.25
2023-04-18T15:12:21.992Z,5.50
2023-04-18T15:13:24.811Z,7.00
2023-04-18T15:14:29.156Z,6.00
2023-04-18T15:15:32.506Z,6.00
2023-04-18T15:16:35.358Z,4.00
2023-04-18T15:17:38.397Z,3.00
2023-04-18T15:18:41.212Z,3.50
2023-04-18T15:19:45.994Z,4.25
2023-04-18T15:20:48.794Z,5.75
2023-04-18T15:21:51.537Z,5.00
2023-04-18T15:22:54.249Z,5.50
2023-04-18T15:23:57.127Z,6.50
2023-04-18T15:24:59.865Z,7.00
2023-04-18T15:26:02.804Z,5.50
2023-04-18T15:27:05.652Z,3.80
2023-04-18T15:28:08.513Z,3.00
2023-04-18T15:29:11.278Z,3.00
2023-04-18T15:30:13.865Z,2.50
2023-04-18T15:31:16.633Z,2.50
2023-04-18T15:32:19.483Z,5.50
2023-04-18T15:33:22.137Z,8.50
2023-04-18T15:34:24.740Z,6.50
2023-04-18T15:35:27.579Z,3.50
2023-04-18T15:36:30.496Z,3.50
2023-04-18T15:37:33.141Z,3.50
2023-04-18T15:38:35.868Z,2.40
2023-04-18T15:39:38.552Z,2.00
2023-04-18T15:40:44.051Z,2.00
2023-04-18T15:41:46.740Z,2.50
2023-04-18T15:42:49.547Z,3.50
2023-04-18T15:43:52.350Z,6.25
2023-04-18T15:44:54.962Z,6.50
2023-04-18T15:45:57.877Z,4.00
2023-04-18T15:47:00.599Z,1.50
2023-04-18T15:48:03.382Z,1.00
2023-04-18T15:49:06.237Z,0.50
2023-04-18T15:50:08.920Z,1.00
2023-04-18T15:51:11.768Z,1.00
2023-04-18T15:52:14.455Z,0.50
2023-04-18T15:53:17.133Z,0.50
2023-04-18T15:54:19.890Z,0.50
2023-04-18T15:55:22.491Z,1.00
2023-04-18T15:56:26.374Z,1.00
2023-04-18T15:57:43.580Z,2.00
2023-04-18T15:59:02.498Z,3.50
2023-04-18T16:00:05.153Z,6.50
2023-04-18T16:01:08.195Z,5.00
2023-04-18T16:02:10.999Z,6.25
2023-04-18T16:03:13.968Z,7.50
2023-04-18T16:04:16.980Z,8.00
2023-04-18T16:05:19.863Z,7.80
2023-04-18T16:06:22.791Z,7.20
2023-04-18T16:07:25.481Z,6.80
2023-04-18T16:08:28.337Z,5.50
2023-04-18T16:09:31.000Z,5.00
2023-04-18T16:10:33.922Z,4.50
2023-04-18T16:11:36.722Z,3.50
2023-04-18T16:12:39.748Z,2.00
2023-04-18T16:13:42.661Z,2.00
2023-04-18T16:14:45.329Z,1.50
2023-04-18T16:15:48.372Z,1.60
2023-04-18T16:16:51.177Z,2.00
2023-04-18T16:17:54.097Z,2.50
2023-04-18T16:18:56.996Z,2.00
2023-04-18T16:20:00.254Z,2.50
2023-04-18T16:21:03.224Z,3.50
2023-04-18T16:22:05.923Z,3.00
2023-04-18T16:23:08.850Z,2.00
2023-04-18T16:24:11.521Z,2.25
2023-04-18T16:25:15.268Z,2.00
2023-04-18T16:26:17.953Z,2.00
2023-04-18T16:27:20.878Z,1.50
2023-04-18T16:28:23.557Z,1.50
2023-04-18T16:29:26.249Z,1.00
2023-04-18T16:30:29.100Z,2.00
2023-04-18T16:31:31.701Z,5.50
2023-04-18T16:32:34.671Z,8.50
2023-04-18T16:33:37.505Z,6.25
2023-04-18T16:34:40.450Z,3.50
2023-04-18T16:35:43.724Z,1.75
2023-04-18T16:36:51.041Z,1.00
2023-04-18T16:37:53.574Z,1.50
2023-04-18T16:38:56.243Z,2.00
2023-04-18T16:39:59.330Z,1.50
2023-04-18T16:41:02.448Z,1.00
2023-04-18T16:42:15.367Z,1.75
2023-04-18T16:43:17.209Z,1.50
2023-04-18T16:44:20.105Z,1.00
2023-04-18T16:45:22.764Z,1.50
2023-04-18T16:46:27.380Z,1.00
2023-04-18T16:47:29.702Z,1.00
2023-04-18T16:48:32.412Z,1.00
2023-04-18T16:49:35.155Z,1.00
2023-04-18T16:50:37.791Z,1.25
2023-04-18T16:51:40.448Z,1.00
2023-04-18T16:52:43.157Z,1.00
2023-04-18T16:53:45.800Z,1.50
2023-04-18T16:54:51.245Z,1.50
2023-04-18T16:55:53.313Z,1.50
2023-04-18T16:56:56.078Z,1.50
2023-04-18T16:57:58.650Z,1.50
2023-04-18T16:59:01.338Z,1.50
2023-04-18T17:00:03.992Z,2.00
2023-04-18T17:01:06.639Z,2.00
2023-04-18T17:02:09.377Z,1.00
2023-04-18T17:03:12.292Z,1.00
2023-04-18T17:04:15.185Z,1.00
2023-04-18T17:05:18.011Z,1.00
2023-04-18T17:06:20.725Z,1.00
2023-04-18T17:07:23.396Z,1.00
2023-04-18T17:08:26.142Z,1.00
2023-04-18T17:09:28.816Z,1.00
2023-04-18T17:10:31.429Z,1.00
2023-04-18T17:11:34.092Z,1.00
2023-04-18T17:12:37.001Z,1.25
2023-04-18T17:13:39.617Z,1.50
2023-04-18T17:14:42.460Z,1.00
2023-04-18T17:15:45.320Z,1.00
2023-04-18T17:16:49.150Z,1.00
2023-04-18T17:17:52.252Z,1.00
2023-04-18T17:18:54.912Z,0.50
2023-04-18T17:19:57.826Z,1.00
2023-04-18T17:21:00.367Z,1.00
2023-04-18T17:22:04.140Z,0.25
2023-04-18T17:23:06.749Z,0.00
2023-04-18T17:24:09.413Z,0.50
2023-04-18T17:25:12.013Z,1.00
2023-04-18T17:26:14.563Z,0.75
2023-04-18T17:27:17.203Z,1.00
2023-04-18T17:28:19.798Z,0.50
2023-04-18T17:29:23.803Z,0.50
2023-04-18T17:30:26.297Z,0.00
2023-04-18T17:31:29.168Z,0.50
2023-04-18T17:32:32.172Z,1.00
2023-04-18T17:33:34.751Z,0.50
2023-04-18T17:34:37.596Z,0.00
2023-04-18T17:35:40.275Z,0.50
2023-04-18T17:36:43.152Z,0.00
2023-04-18T17:37:45.814Z,0.00
2023-04-18T17:38:48.703Z,0.50
2023-04-18T17:39:51.284Z,1.00
2023-04-18T17:40:53.833Z,0.50
2023-04-18T17:41:56.453Z,0.00
2023-04-18T17:42:59.123Z,0.00
2023-04-18T17:44:01.781Z,0.50
2023-04-18T17:45:04.430Z,0.50
2023-04-18T17:46:07.068Z,0.50
2023-04-18T17:47:09.771Z,0.25
2023-04-18T17:48:12.433Z,0.50
2023-04-18T17:49:15.151Z,0.00
2023-04-18T17:50:18.208Z,0.50
2023-04-18T17:51:21.046Z,0.50
2023-04-18T17:52:23.783Z,0.50
2023-04-18T17:53:26.560Z,1.00
2023-04-18T17:54:29.175Z,0.50
2023-04-18T17:55:32.320Z,0.50
2023-04-18T17:56:34.962Z,1.00
2023-04-18T17:57:38.391Z,1.00
2023-04-18T17:58:41.211Z,1.00
2023-04-18T17:59:43.912Z,0.50
2023-04-18T18:00:47.748Z,0.00
2023-04-18T18:01:50.527Z,1.00
2023-04-18T18:02:53.304Z,1.50
2023-04-18T18:03:56.099Z,1.00
2023-04-18T18:04:58.787Z,0.50
2023-04-18T18:06:01.437Z,0.50
2023-04-18T18:07:04.092Z,0.50
2023-04-18T18:08:06.717Z,0.00
2023-04-18T18:09:09.383Z,0.50
2023-04-18T18:10:12.106Z,0.25
2023-04-18T18:11:14.815Z,0.00
2023-04-18T18:12:17.605Z,0.00
2023-04-18T18:13:20.321Z,0.00
2023-04-18T18:14:23.068Z,0.50
2023-04-18T18:15:25.687Z,0.25
2023-04-18T18:16:28.356Z,0.00
2023-04-18T18:17:31.285Z,0.50
2023-04-18T18:18:34.009Z,0.40
2023-04-18T18:19:36.714Z,0.50
2023-04-18T18:20:39.376Z,0.00
2023-04-18T18:21:42.014Z,0.00
2023-04-18T18:22:44.652Z,0.00
2023-04-18T18:23:47.318Z,0.75
2023-04-18T18:24:50.002Z,0.25
2023-04-18T18:25:52.635Z,0.50
2023-04-18T18:26:55.258Z,0.25
2023-04-18T18:27:57.936Z,0.00
2023-04-18T18:29:00.618Z,0.25
2023-04-18T18:30:03.327Z,0.50
2023-04-18T18:31:05.963Z,0.00
2023-04-18T18:32:08.566Z,0.50
2023-04-18T18:33:11.516Z,1.00
2023-04-18T18:34:14.166Z,0.25
2023-04-18T18:35:16.940Z,0.50
2023-04-18T18:36:19.585Z,1.00
2023-04-18T18:37:22.188Z,1.00
2023-04-18T18:38:24.954Z,1.00
2023-04-18T18:39:27.562Z,1.00
2023-04-18T18:40:30.464Z,1.00
2023-04-18T18:41:33.064Z,1.00
2023-04-18T18:42:35.970Z,1.50
2023-04-18T18:43:38.611Z,1.50
2023-04-18T18:44:41.495Z,2.00
2023-04-18T18:45:44.347Z,2.00
2023-04-18T18:46:47.070Z,1.50
2023-04-18T18:47:50.151Z,2.00
2023-04-18T18:48:52.764Z,2.50
2023-04-18T18:49:55.677Z,2.00
2023-04-18T18:50:58.485Z,2.00
2023-04-18T18:52:01.115Z,2.50
2023-04-18T18:53:03.951Z,3.00
2023-04-18T18:54:06.671Z,2.50
2023-04-18T18:55:09.593Z,2.50
2023-04-18T18:56:17.960Z,2.50
2023-04-18T18:57:20.666Z,2.00
2023-04-18T18:58:23.275Z,2.50
2023-04-18T18:59:26.054Z,2.00
2023-04-18T19:00:28.662Z,1.50
2023-04-18T19:01:31.326Z,1.50
2023-04-18T19:02:34.296Z,2.50
2023-04-18T19:03:39.045Z,3.00
2023-04-18T19:04:41.860Z,2.75
2023-04-18T19:05:44.571Z,2.50
2023-04-18T19:06:47.262Z,3.00
2023-04-18T19:07:49.939Z,3.00
2023-04-18T19:08:52.767Z,3.00
2023-04-18T19:09:56.709Z,2.75
2023-04-18T19:10:59.575Z,2.50
2023-04-18T19:12:02.246Z,3.00
2023-04-18T19:13:04.991Z,3.00
2023-04-18T19:14:07.682Z,3.00
2023-04-18T19:15:10.424Z,3.00
2023-04-18T19:16:13.156Z,3.00
2023-04-18T19:17:15.843Z,3.00
2023-04-18T19:18:18.524Z,2.50
2023-04-18T19:19:21.156Z,2.00
2023-04-18T19:20:23.860Z,2.50
2023-04-18T19:21:26.544Z,3.00
2023-04-18T19:22:29.240Z,3.00
2023-04-18T19:23:31.935Z,2.50
2023-04-18T19:24:34.651Z,3.00
2023-04-18T19:25:37.420Z,3.50
2023-04-18T19:26:40.024Z,3.00
2023-04-18T19:27:42.755Z,3.50
2023-04-18T19:28:48.891Z,3.50
2023-04-18T19:29:51.235Z,4.25
2023-04-18T19:30:53.962Z,4.00
2023-04-18T19:31:56.712Z,3.50
2023-04-18T19:32:59.526Z,3.50
2023-04-18T19:34:02.338Z,3.25
2023-04-18T19:35:08.898Z,3.60
2023-04-18T19:36:11.590Z,4.00
2023-04-18T19:37:14.472Z,4.00
2023-04-18T19:38:17.156Z,4.00
2023-04-18T19:39:20.048Z,3.50
2023-04-18T19:40:22.982Z,3.00
2023-04-18T19:41:26.896Z,3.50
2023-04-18T19:42:29.828Z,4.00
2023-04-18T19:43:36.719Z,4.00
2023-04-18T19:44:39.406Z,4.00
2023-04-18T19:45:42.362Z,4.00
2023-04-18T19:46:45.170Z,3.50
2023-04-18T19:47:48.112Z,4.00
2023-04-18T19:48:51.877Z,4.00
2023-04-18T19:49:54.843Z,4.00
2023-04-18T19:51:16.695Z,4.00
2023-04-18T19:52:19.234Z,3.50
2023-04-18T19:53:22.052Z,3.75
2023-04-18T19:54:25.079Z,4.50
2023-04-18T19:55:27.850Z,4.50
2023-04-18T19:56:30.783Z,4.00
2023-04-18T19:57:34.164Z,4.50
2023-04-18T19:58:38.444Z,5.00
2023-04-18T19:59:41.100Z,4.50
2023-04-18T20:00:43.814Z,4.00
2023-04-18T20:01:46.776Z,4.50
2023-04-18T20:02:50.224Z,5.00
2023-04-18T20:03:53.383Z,5.50
2023-04-18T20:04:56.907Z,4.50
2023-04-18T20:05:59.839Z,4.50
2023-04-18T20:07:12.004Z,5.00
2023-04-18T20:08:15.045Z,4.50
2023-04-18T20:09:17.779Z,4.50
2023-04-18T20:10:20.788Z,5.25
2023-04-18T20:11:24.717Z,4.50
2023-04-18T20:12:33.896Z,5.00
2023-04-18T20:13:37.908Z,5.75
2023-04-18T20:14:40.732Z,5.40
2023-04-18T20:15:43.604Z,4.50
2023-04-18T20:16:46.624Z,4.00
2023-04-18T20:17:49.479Z,4.00
2023-04-18T20:20:28.680Z,4.50
2023-04-18T20:21:31.412Z,5.00
2023-04-18T20:22:34.391Z,5.50
2023-04-18T20:23:40.714Z,5.00
2023-04-18T20:27:21.358Z,4.50
2023-04-18T20:28:25.888Z,4.50
2023-04-18T20:29:28.949Z,5.00
2023-04-18T20:30:31.700Z,4.50
2023-04-18T20:31:35.297Z,5.00
2023-04-18T20:32:39.984Z,4.25
2023-04-18T20:33:43.728Z,4.50
2023-04-18T20:34:46.606Z,4.50
2023-04-18T20:35:49.429Z,5.00
2023-04-18T20:36:52.167Z,4.75
2023-04-18T20:37:55.057Z,4.50
2023-04-18T20:38:58.988Z,4.50
2023-04-18T20:40:01.718Z,4.50
2023-04-18T20:41:04.436Z,4.00
2023-04-18T20:42:07.212Z,3.25
2023-04-18T20:43:10.016Z,4.00
2023-04-18T20:44:12.657Z,4.25
2023-04-18T20:45:15.405Z,4.50
2023-04-18T20:46:18.159Z,4.50
2023-04-18T20:47:21.171Z,4.00
2023-04-18T20:48:28.929Z,3.50
2023-04-18T20:49:33.433Z,3.50
2023-04-18T20:50:36.192Z,4.00
2023-04-18T20:51:39.103Z,4.00
2023-04-18T20:52:41.838Z,4.00
2023-04-18T20:53:44.663Z,4.00
2023-04-18T20:54:47.660Z,4.00
2023-04-18T20:55:50.672Z,3.50
2023-04-18T20:56:53.608Z,4.00
2023-04-18T20:57:56.319Z,3.50
2023-04-18T20:58:59.204Z,3.00
2023-04-18T21:00:03.403Z,3.00
2023-04-18T21:01:07.351Z,2.50
2023-04-18T21:02:26.555Z,3.50
2023-04-18T21:03:34.993Z,3.50
2023-04-18T21:04:38.691Z,2.50
2023-04-18T21:05:41.493Z,3.00
2023-04-18T21:06:44.429Z,3.00
2023-04-18T21:07:47.300Z,3.00
2023-04-18T21:08:50.482Z,3.00
2023-04-18T21:09:53.382Z,3.00
2023-04-18T21:11:00.479Z,3.50
2023-04-18T21:12:12.990Z,3.50
2023-04-18T21:14:32.525Z,3.25
2023-04-18T21:16:51.313Z,3.00
2023-04-18T21:17:53.983Z,3.00
2023-04-18T21:20:20.714Z,4.00
2023-04-18T21:21:23.541Z,3.50
2023-04-18T21:22:27.259Z,3.75
2023-04-18T21:23:49.119Z,3.50
2023-04-18T21:26:15.316Z,4.00
2023-04-18T21:27:18.194Z,3.50
2023-04-18T21:28:27.561Z,4.00
2023-04-18T21:29:31.879Z,4.50
2023-04-18T21:31:59.547Z,4.00
2023-04-18T21:33:02.565Z,3.50
2023-04-18T21:34:22.498Z,3.50
2023-04-18T21:35:26.627Z,4.00
2023-04-18T21:36:29.383Z,4.00
2023-04-18T21:37:32.140Z,3.00
2023-04-18T21:45:19.123Z,2.50
2023-04-18T21:51:56.143Z,1.25
2023-04-18T22:11:19.629Z,1.00
2023-04-18T22:12:22.793Z,1.00
2023-04-18T22:20:24.360Z,1.00
2023-04-18T22:26:48.635Z,1.50
2023-04-18T22:57:28.396Z,1.00
2023-04-18T23:23:36.302Z,1.00
